Terminal Aerodrome Forecast
Issued by NWS Twin Cities, MN

Home | Current Version | Previous Version | Text Only | Print | Product List | Glossary Off
Versions: 1 2 3 4 5 6 7 8 9 10 11 12 13 14 15 16 17

000
FTUS43 KMPX 300520
TAFEAU
TAF
KEAU 300520Z 3006/3106 27007KT P6SM SKC
     FM301100 26003KT P6SM BKN070
     FM301600 24004KT P6SM VCSH OVC060
     FM302000 16005KT P6SM SCT030 BKN060=

USA.gov is the U.S. government's official web portal to all federal, state and local government web resources and services.